aviador You're here:

MMSL Decoded Metar

in
Report Time2017-12-15 12:55:00
UTC Time2017-12-15 14:10:25
Flight Rules Old
Wind300° at 09 kt
W.Decomp.*RWY 29: 8.9 kt HW 1.6 kt RCW
W.Rank300° ranks 3
Current wind is below 300° avg. (10.7)
Visibility9999 m
Phenomena:N/A
Clouds:N/A
Expected CloudBase > 2,400 ft AGL from Temp-Dew spread
CeilingNone
Temp17°C
Dew Point11°C (68% RH)
AAT14.1°C
QNH1016 hPa
Raw Report
METAR MMSL 151255Z 30009KT 8SM SKC 17/11 A2999 RMK AC RTS=

Extra information for MMSL:More info

Social comments